ADDS METAR Data INFO
IDs: Format: Raw Decoded Include TAF

Data at: 0744 UTC 23 Jul 2018

KSAV 230653Z AUTO 21006KT 10SM CLR 24/23 A2978 RMK AO2 SLP083 T02440228 TSNO
KSAV 230553Z AUTO 18006KT 10SM CLR 25/23 A2975 RMK AO2 SLP073 T02500233 10306 20250 56015 TSNO
KSAV 230453Z AUTO 18004KT 10SM CLR 26/24 A2976 RMK AO2 SLP078 T02560239 403390233 TSNO
KSAV 230353Z 16004KT 10SM FEW250 26/24 A2977 RMK AO2 SLP078 LAST T02610244
KSAV 230253Z 22004KT 10SM FEW080 SCT250 27/24 A2979 RMK AO2 SLP088 T02720244 51026
KSAV 230153Z 20004KT 10SM FEW055 SCT250 28/24 A2978 RMK AO2 SLP084 OCNL LTGCC DSNT NE T02830244
KSAV 230053Z 21003KT 10SM SCT055 SCT080 BKN250 29/23 A2976 RMK AO2 SLP076 T02890228
KSAV 222353Z 18004KT 10SM SCT060 BKN090 BKN250 31/22 A2972 RMK AO2 SLP062 T03060217 10339 20306 58004
KSAV 222253Z 18007KT 10SM BKN060 BKN250 32/21 A2973 RMK AO2 SLP067 T03220211
KSAV 222153Z 23006KT 10SM SCT060 SCT075 BKN250 33/19 A2973 RMK AO2 SLP068 T03280194
KSAV 222053Z 23006KT 10SM BKN060 BKN250 33/20 A2973 RMK AO2 SLP066 T03280200 58018
KSAV 221953Z 24008KT 10SM SCT045 BKN250 33/20 A2975 RMK AO2 SLP073 T03280200
KSAV 221853Z 23006KT 10SM BKN045 BKN250 32/21 A2977 RMK AO2 SLP079 T03220206
KSAV 221753Z 26008KT 10SM SCT045 SCT250 32/21 A2978 RMK AO2 SLP084 T03220206 10333 20244 58013
KSAV 221653Z 27007KT 10SM FEW036 SCT045 SCT250 33/22 A2979 RMK AO2 SLP088 T03280222
KSAV 221553Z 26007KT 10SM FEW024 FEW250 31/23 A2981 RMK AO2 SLP093 T03060233
KSAV 221453Z 27009KT 10SM FEW018 SCT250 29/23 A2982 RMK AO2 SLP097 T02940233 53003
KSAV 221353Z 24009KT 10SM SCT015 SCT250 28/23 A2981 RMK AO2 SLP095 T02780233
KSAV 221253Z 26007KT 10SM FEW008 SCT250 26/23 A2981 RMK AO2 SLP095 T02610233
KSAV 221153Z 23007KT 10SM SCT005 24/23 A2981 RMK AO2 SLP094 T02440233 10244 20233 53011
KSAV 221115Z 24004KT 9SM SCT005 24/23 A2980 RMK AO2 T02390233
KSAV 221053Z 24005KT 9SM BKN005 24/23 A2980 RMK AO2 SLP088 T02390233
KSAV 220953Z 24007KT 10SM BKN005 24/23 A2978 RMK AO2 SLP084 T02390228
KSAV 220853Z AUTO 22006KT 10SM OVC007 24/23 A2978 RMK AO2 SLP083 T02390228 56015 TSNO
KSAV 220834Z AUTO 23006KT 10SM BKN009 OVC014 24/23 A2978 RMK AO2 CIG 007V012 T02390228 TSNO
KSAV 220800Z AUTO 23007KT 10SM OVC014 24/22 A2977 RMK AO2 T02390222 TSNO
KSAV 220753Z AUTO 22007KT 10SM OVC016 24/22 A2978 RMK AO2 SLP083 T02390222 TSNO
KSAV 220716Z AUTO 21007KT 10SM BKN021 23/22 A2980 RMK AO2 T02330217 TSNO
KSAV 220653Z AUTO 23006KT 10SM FEW024 23/22 A2981 RMK AO2 SLP093 T02330217 TSNO
KSAV 220553Z AUTO 21005KT 10SM CLR 24/22 A2982 RMK AO2 SLP097 T02390217 10261 20233 58004 TSNO
KSAV 220453Z AUTO 19008KT 10SM FEW110 24/22 A2983 RMK AO2 SLP100 T02390222 403000228 TSNO
KSAV 220353Z 19009KT 10SM SCT050 BKN100 24/22 A2984 RMK AO2 SLP102 LAST T02390222
KSAV 220253Z 18005KT 10SM FEW050 24/22 A2983 RMK AO2 SLP101 T02390222 50009
KSAV 220153Z 20005KT 10SM FEW120 FEW200 24/22 A2984 RMK AO2 SLP103 T02440222
KSAV 220053Z 22004KT 10SM SCT120 BKN200 25/22 A2984 RMK AO2 SLP102 T02500222
KSAV 212353Z VRB03KT 10SM SCT150 BKN220 26/22 A2981 RMK AO2 SLP093 T02560217 10300 20256 55007
KSAV 212253Z 25007KT 10SM SCT150 BKN220 27/21 A2980 RMK AO2 SLP090 T02720211
KSAV 212153Z 25009KT 10SM SCT080 BKN140 BKN200 28/21 A2982 RMK AO2 SLP096 T02780206
KSAV 212053Z 25008KT 10SM FEW028 BKN080 BKN140 27/21 A2983 RMK AO2 SLP099 T02720206 56006
KSAV 211953Z 27013KT 10SM FEW025 SCT030 BKN080 OVC140 28/23 A2984 RMK AO2 SLP102 T02780233